LFLY/LYN METAR and TAF weather

Enter ICAO airport designator
Station Type Date Time Source
LFLY METAR 2021/10/20 06:30 UTC NOAA

LFLY 200630Z AUTO 18020G36KT CAVOK 17/13 Q1020 NOSIG


Station Type Date Time Source
LFLY Decoded METAR 2021/10/20 06:30 UTC NOAA

Lyon / Bron, France (LFLY) 45-43N 004-57E 201M
Oct 20, 2021 - 02:30 AM EDT / 2021.10.20 0630 UTC
Wind: from the S (180 degrees) at 23 MPH (20 KT) gusting to 41 MPH (36 KT):0
Visibility: greater than 7 mile(s):0
Temperature: 62 F (17 C)
Dew Point: 55 F (13 C)
Relative Humidity: 77%
Pressure (altimeter): 30.12 in. Hg (1020 hPa)
ob: LFLY 200630Z AUTO 18020G36KT CAVOK 17/13 Q1020 NOSIG
cycle: 6

Station Type Date Time Source
LFLY TAF 2021/10/20 06:21 UTC NOAA

TAF TAF LFLY 200500Z 2006/2106 18020G35KT 9999 SCT020
BECMG 2006/2008 CAVOK
TEMPO 2012/2102 19025G45KT
TEMPO 2023/2105 RA BKN030
BECMG 2103/2105 20005KT

Example: see airport list